DAUI

In Salah Airport

In Salah, Algeria
TAF DAUI 221100Z 2212/2312 36014KT 8000 NSC PROB40 2212/2216 02024KT 5000 DRSA BECMG 2220/2223 VRB02KT BECMG 2307/2311 26014KT
Issued Valid From Valid To
Jan-22 @ 11:00 UTC
(6 hours ago)
Jan-22 @ 12:00 UTC
(5 hours ago)
Jan-23 @ 12:00 UTC
(in 19 hours)
Jan-22 @ 12:00 to Jan-22 @ 20:00
TAF DAUI 221100Z 2212/2312 36014KT 8000 NSC
Wind Visibility Clouds
360° at 14 knots 7,998 meters
  • No significant clouds
Expired Click to View Jan-22 @ 12:00 to Jan-22 @ 16:00
PROB40 2212/2216 02024KT 5000 DRSA
Wind Visibility Conditions
20° at 24 knots 5,005 meters
  • Low drifting
  • Sand
Becoming Jan-22 @ 20:00 to Jan-23 @ 07:00
BECMG 2220/2223 VRB02KT
Wind Visibility Clouds
Variable at 2 knots 7,998 meters
  • No significant clouds
Becoming Jan-23 @ 07:00 to Jan-23 @ 12:00
BECMG 2307/2311 26014KT
Wind Visibility Clouds
260° at 14 knots 7,998 meters
  • No significant clouds
TAF DAUI 221100Z 2212/2312 36014KT 8000 NSC PROB40 2212/2216 02024KT 5000 DRSA BECMG 2220/2223 VRB02KT BECMG 2307/2311 26014KT
Issued Jan-22 @ 11:00 UTC
(6 hours ago)
Valid From Jan-22 @ 12:00 UTC
(5 hours ago)
Valid To Jan-23 @ 12:00 UTC
(in 19 hours)
Jan-22 @ 12:00 - Jan-22 @ 20:00
Wind Visibility
360° at 14 knots 7,998 meters
Clouds
  • No significant clouds
Jan-22 @ 12:00 - Jan-22 @ 16:00
Wind Visibility
20° at 24 knots 5,005 meters
Conditions
  • Low drifting
  • Sand
Becoming Jan-22 @ 20:00 - Jan-23 @ 07:00
Wind Visibility
Variable at 2 knots 7,998 meters
Clouds
  • No significant clouds
Becoming Jan-23 @ 07:00 - Jan-23 @ 12:00
Wind Visibility
260° at 14 knots 7,998 meters
Clouds
  • No significant clouds